createdAt,value
2022-10-01T00:01:17.102Z,95.20
2022-10-01T00:03:44.480Z,95.20
2022-10-01T00:06:17.730Z,95.20
2022-10-01T00:08:49.261Z,95.20
2022-10-01T00:11:21.991Z,95.30
2022-10-01T00:13:48.790Z,95.30
2022-10-01T00:16:26.979Z,95.30
2022-10-01T00:18:54.486Z,95.30
2022-10-01T00:21:30.028Z,95.30
2022-10-01T00:24:03.088Z,95.30
2022-10-01T00:26:32.328Z,95.30
2022-10-01T00:29:02.093Z,95.30
2022-10-01T00:31:29.831Z,95.30
2022-10-01T00:33:58.432Z,95.30
2022-10-01T00:36:26.195Z,95.40
2022-10-01T00:38:53.341Z,95.30
2022-10-01T00:41:20.118Z,95.40
2022-10-01T00:44:25.604Z,95.40
2022-10-01T00:46:54.942Z,95.30
2022-10-01T00:49:27.544Z,95.30
2022-10-01T00:51:58.034Z,95.30
2022-10-01T00:54:33.453Z,95.30
2022-10-01T00:57:01.508Z,95.30
2022-10-01T00:59:29.324Z,95.30
2022-10-01T01:01:56.147Z,95.30
2022-10-01T01:04:22.955Z,95.30
2022-10-01T01:06:57.669Z,95.30
2022-10-01T01:09:37.314Z,95.30
2022-10-01T01:12:30.251Z,95.30
2022-10-01T01:15:11.736Z,95.30
2022-10-01T01:18:22.935Z,95.30
2022-10-01T01:21:09.467Z,95.30
2022-10-01T01:24:03.309Z,95.30
2022-10-01T01:26:51.570Z,95.30
2022-10-01T01:29:35.006Z,95.30
2022-10-01T01:32:14.774Z,95.20
2022-10-01T01:34:45.492Z,95.20
2022-10-01T01:37:15.386Z,95.20
2022-10-01T01:39:46.190Z,95.20
2022-10-01T01:42:22.265Z,95.20
2022-10-01T01:44:53.204Z,95.20
2022-10-01T01:47:23.520Z,95.10
2022-10-01T01:49:52.461Z,95.10
2022-10-01T01:52:19.261Z,95.10
2022-10-01T01:54:49.741Z,95.10
2022-10-01T01:57:18.167Z,95.00
2022-10-01T01:59:45.487Z,95.00
2022-10-01T02:02:35.859Z,95.00
2022-10-01T02:05:09.602Z,95.00
2022-10-01T02:08:00.424Z,95.00
2022-10-01T02:10:45.639Z,95.00
2022-10-01T02:13:35.093Z,95.00
2022-10-01T02:16:14.981Z,95.00
2022-10-01T02:19:03.267Z,95.10
2022-10-01T02:21:50.547Z,95.10
2022-10-01T02:24:17.520Z,95.10
2022-10-01T02:26:47.633Z,95.10
2022-10-01T02:29:18.535Z,95.10
2022-10-01T02:31:47.344Z,95.10
2022-10-01T02:34:20.080Z,95.10
2022-10-01T02:36:48.818Z,95.10
2022-10-01T02:39:18.241Z,95.10
2022-10-01T02:41:48.029Z,95.10
2022-10-01T02:44:22.830Z,95.10
2022-10-01T02:47:04.443Z,95.10
2022-10-01T02:49:32.009Z,95.10
2022-10-01T02:52:08.916Z,95.10
2022-10-01T02:54:58.239Z,95.10
2022-10-01T02:57:29.586Z,95.10
2022-10-01T03:00:03.204Z,95.10
2022-10-01T03:02:31.543Z,95.10
2022-10-01T03:04:59.189Z,95.10
2022-10-01T03:07:27.623Z,95.00
2022-10-01T03:09:54.572Z,95.10
2022-10-01T03:12:21.829Z,95.10
2022-10-01T03:14:48.591Z,95.10
2022-10-01T03:17:16.321Z,95.10
2022-10-01T03:19:43.259Z,95.10
2022-10-01T03:22:12.817Z,95.10
2022-10-01T03:24:39.606Z,95.10
2022-10-01T03:27:06.663Z,95.10
2022-10-01T03:29:33.405Z,95.10
2022-10-01T03:32:00.262Z,95.10
2022-10-01T03:34:27.113Z,95.10
2022-10-01T03:36:53.932Z,95.10
2022-10-01T03:39:20.887Z,95.10
2022-10-01T03:41:47.706Z,95.10
2022-10-01T03:44:14.535Z,95.10
2022-10-01T03:46:41.575Z,95.10
2022-10-01T03:49:08.290Z,95.10
2022-10-01T03:51:37.362Z,95.10
2022-10-01T03:54:05.825Z,95.10
2022-10-01T03:56:33.317Z,95.10
2022-10-01T03:59:00.178Z,95.10
2022-10-01T04:01:27.270Z,95.10
2022-10-01T04:03:54.308Z,95.10
2022-10-01T04:06:21.079Z,95.10
2022-10-01T04:08:48.039Z,95.10
2022-10-01T04:11:15.025Z,95.10
2022-10-01T04:13:41.764Z,95.10
2022-10-01T04:16:08.954Z,95.10
2022-10-01T04:18:36.118Z,95.10
2022-10-01T04:21:03.073Z,95.10
2022-10-01T04:23:29.804Z,95.10
2022-10-01T04:26:05.471Z,95.10
2022-10-01T04:28:32.316Z,95.10
2022-10-01T04:31:17.944Z,95.10
2022-10-01T04:33:45.350Z,95.10
2022-10-01T04:36:12.064Z,95.10
2022-10-01T04:38:38.822Z,95.10
2022-10-01T04:41:05.852Z,95.10
2022-10-01T04:43:32.736Z,95.10
2022-10-01T04:45:59.540Z,95.10
2022-10-01T04:48:26.400Z,95.10
2022-10-01T04:50:53.168Z,95.10
2022-10-01T04:53:19.879Z,95.10
2022-10-01T04:55:46.694Z,95.10
2022-10-01T04:58:13.635Z,95.10
2022-10-01T05:00:40.841Z,95.10
2022-10-01T05:03:07.572Z,95.10
2022-10-01T05:05:35.046Z,95.10
2022-10-01T05:08:02.181Z,95.10
2022-10-01T05:10:29.188Z,95.10
2022-10-01T05:12:56.752Z,95.10
2022-10-01T05:15:23.500Z,95.10
2022-10-01T05:17:50.264Z,95.10
2022-10-01T05:20:19.913Z,95.10
2022-10-01T05:22:47.390Z,95.10
2022-10-01T05:25:14.615Z,95.10
2022-10-01T05:27:41.676Z,95.10
2022-10-01T05:30:10.561Z,95.10
2022-10-01T05:32:37.916Z,95.10
2022-10-01T05:35:07.061Z,95.10
2022-10-01T05:37:34.534Z,95.10
2022-10-01T05:40:01.714Z,95.10
2022-10-01T05:42:28.484Z,95.10
2022-10-01T05:44:56.111Z,95.10
2022-10-01T05:47:23.207Z,95.10
2022-10-01T05:49:49.921Z,95.10
2022-10-01T05:52:16.765Z,95.20
2022-10-01T05:54:43.581Z,95.20
2022-10-01T05:57:10.681Z,95.20
2022-10-01T05:59:37.438Z,95.20
2022-10-01T06:02:04.617Z,95.20
2022-10-01T06:04:31.458Z,95.30
2022-10-01T06:06:58.261Z,95.30
2022-10-01T06:09:25.228Z,95.30
2022-10-01T06:11:51.964Z,95.30
2022-10-01T06:14:18.943Z,95.30
2022-10-01T06:16:46.923Z,95.30
2022-10-01T06:19:13.956Z,95.30
2022-10-01T06:21:40.673Z,95.40
2022-10-01T06:24:07.483Z,95.40
2022-10-01T06:26:34.209Z,95.40
2022-10-01T06:29:02.642Z,95.40
2022-10-01T06:31:30.072Z,95.40
2022-10-01T06:33:56.843Z,95.50
2022-10-01T06:36:23.544Z,95.50
2022-10-01T06:38:50.343Z,95.50
2022-10-01T06:41:17.056Z,95.50
2022-10-01T06:43:44.090Z,95.50
2022-10-01T06:46:11.263Z,95.50
2022-10-01T06:48:38.068Z,95.60
2022-10-01T06:51:05.779Z,95.60
2022-10-01T06:53:32.632Z,95.60
2022-10-01T06:56:04.843Z,95.60
2022-10-01T06:58:31.713Z,95.60
2022-10-01T07:01:01.456Z,95.70
2022-10-01T07:03:28.453Z,95.70
2022-10-01T07:06:02.231Z,95.70
2022-10-01T07:08:29.043Z,95.80
2022-10-01T07:11:03.343Z,95.80
2022-10-01T07:13:30.191Z,95.80
2022-10-01T07:15:57.176Z,95.90
2022-10-01T07:18:23.965Z,95.90
2022-10-01T07:20:50.723Z,95.90
2022-10-01T07:23:17.958Z,95.90
2022-10-01T07:25:45.631Z,96.00
2022-10-01T07:28:17.823Z,91.30
2022-10-01T07:31:14.977Z,91.40
2022-10-01T07:33:42.028Z,91.40
2022-10-01T07:36:11.292Z,91.50
2022-10-01T07:38:38.012Z,91.50
2022-10-01T07:41:04.999Z,91.50
2022-10-01T07:43:34.161Z,91.60
2022-10-01T07:46:02.008Z,91.60
2022-10-01T07:48:28.800Z,91.60
2022-10-01T07:50:56.476Z,91.60
2022-10-01T07:53:24.052Z,91.60
2022-10-01T07:55:50.802Z,91.70
2022-10-01T07:58:18.701Z,91.70
2022-10-01T08:00:45.532Z,91.70
2022-10-01T08:03:12.410Z,91.70
2022-10-01T08:05:41.430Z,91.70
2022-10-01T08:08:08.752Z,91.70
2022-10-01T08:10:37.917Z,91.70
2022-10-01T08:13:14.481Z,91.70
2022-10-01T08:15:42.793Z,91.70
2022-10-01T08:18:10.955Z,91.70
2022-10-01T08:20:41.799Z,91.70
2022-10-01T08:23:11.300Z,91.70
2022-10-01T08:25:38.534Z,91.70
2022-10-01T08:28:06.528Z,91.70
2022-10-01T08:30:33.643Z,91.70
2022-10-01T08:33:01.903Z,91.70
2022-10-01T08:35:30.181Z,91.70
2022-10-01T08:38:06.735Z,91.70
2022-10-01T08:40:36.839Z,91.80
2022-10-01T08:43:16.494Z,91.70
2022-10-01T08:45:49.240Z,91.70
2022-10-01T08:48:56.851Z,91.70
2022-10-01T08:51:32.790Z,91.70
2022-10-01T08:54:11.841Z,91.70
2022-10-01T08:56:45.279Z,91.70
2022-10-01T08:59:40.975Z,91.70
2022-10-01T09:02:21.674Z,91.70
2022-10-01T09:04:51.485Z,91.70
2022-10-01T09:07:49.613Z,91.70
2022-10-01T09:10:31.729Z,91.70
2022-10-01T09:13:27.785Z,91.80
2022-10-01T09:16:24.299Z,91.70
2022-10-01T09:18:58.821Z,91.80
2022-10-01T09:21:36.778Z,91.80
2022-10-01T09:24:15.603Z,91.80
2022-10-01T09:26:46.630Z,91.80
2022-10-01T09:29:35.661Z,91.80
2022-10-01T09:32:05.947Z,91.80
2022-10-01T09:34:40.194Z,91.90
2022-10-01T09:37:18.815Z,91.80
2022-10-01T09:40:04.983Z,91.80
2022-10-01T09:42:32.127Z,91.80
2022-10-01T09:44:59.599Z,91.80
2022-10-01T09:47:26.531Z,91.80
2022-10-01T09:49:53.271Z,91.80
2022-10-01T09:52:34.541Z,91.90
2022-10-01T09:55:27.203Z,91.90
2022-10-01T09:57:58.023Z,91.90
2022-10-01T10:00:27.005Z,91.90
2022-10-01T10:02:55.513Z,91.90
2022-10-01T10:05:30.341Z,91.90
2022-10-01T10:08:05.934Z,91.90
2022-10-01T10:10:35.785Z,91.90
2022-10-01T10:13:11.340Z,91.90
2022-10-01T10:15:49.513Z,91.90
2022-10-01T10:18:22.969Z,91.90
2022-10-01T10:20:53.930Z,91.90
2022-10-01T10:23:23.197Z,91.90
2022-10-01T10:26:00.817Z,92.00
2022-10-01T10:28:29.668Z,92.00
2022-10-01T10:30:57.932Z,91.90
2022-10-01T10:33:26.373Z,91.90
2022-10-01T10:36:06.733Z,91.90
2022-10-01T10:38:34.916Z,91.90
2022-10-01T10:41:03.846Z,92.00
2022-10-01T10:43:37.963Z,91.90
2022-10-01T10:46:07.118Z,91.90
2022-10-01T10:48:43.895Z,91.90
2022-10-01T10:51:10.684Z,91.90
2022-10-01T10:53:45.366Z,92.00
2022-10-01T10:56:22.625Z,91.90
2022-10-01T10:58:51.374Z,92.00
2022-10-01T11:01:26.962Z,92.00
2022-10-01T11:03:57.417Z,92.00
2022-10-01T11:06:24.413Z,92.00
2022-10-01T11:09:00.493Z,92.00
2022-10-01T11:11:51.175Z,92.00
2022-10-01T11:14:42.071Z,92.00
2022-10-01T11:17:56.864Z,92.00
2022-10-01T11:20:32.290Z,92.00
2022-10-01T11:22:58.968Z,92.00
2022-10-01T11:25:31.391Z,92.00
2022-10-01T11:28:26.968Z,92.10
2022-10-01T11:31:12.071Z,92.00
2022-10-01T11:34:14.379Z,92.10
2022-10-01T11:37:10.676Z,92.10
2022-10-01T11:39:42.411Z,92.10
2022-10-01T11:42:22.118Z,92.10
2022-10-01T11:45:04.209Z,92.10
2022-10-01T11:47:41.678Z,92.10
2022-10-01T11:50:25.377Z,92.10
2022-10-01T11:53:04.745Z,92.10
2022-10-01T11:55:59.791Z,92.10
2022-10-01T11:58:50.820Z,92.10
2022-10-01T12:01:46.273Z,92.00
2022-10-01T12:04:32.442Z,92.00
2022-10-01T12:07:26.746Z,92.10
2022-10-01T12:09:53.577Z,92.10
2022-10-01T12:12:28.880Z,92.10
2022-10-01T12:15:28.626Z,92.10
2022-10-01T12:18:15.716Z,92.10
2022-10-01T12:20:47.588Z,92.10
2022-10-01T12:23:18.776Z,92.10
2022-10-01T12:25:49.028Z,92.10
2022-10-01T12:28:27.619Z,92.10
2022-10-01T12:31:05.158Z,92.10
2022-10-01T12:33:43.772Z,92.10
2022-10-01T12:36:26.318Z,92.10
2022-10-01T12:39:13.307Z,92.10
2022-10-01T12:41:41.068Z,92.10
2022-10-01T12:44:13.839Z,92.10
2022-10-01T12:46:47.398Z,92.10
2022-10-01T12:49:42.090Z,92.10
2022-10-01T12:52:34.694Z,92.10
2022-10-01T12:55:34.276Z,92.10
2022-10-01T12:58:17.917Z,92.10
2022-10-01T13:00:55.827Z,92.10
2022-10-01T13:03:25.514Z,92.10
2022-10-01T13:06:14.748Z,92.10
2022-10-01T13:09:08.499Z,92.20
2022-10-01T13:11:54.370Z,92.20
2022-10-01T13:14:22.560Z,91.90
2022-10-01T13:16:58.845Z,91.90
2022-10-01T13:19:48.100Z,91.90
2022-10-01T13:22:47.636Z,91.90
2022-10-01T13:25:33.119Z,92.00
2022-10-01T13:28:36.244Z,92.00
2022-10-01T13:31:13.058Z,92.00
2022-10-01T13:33:39.852Z,92.10
2022-10-01T13:36:08.254Z,92.10
2022-10-01T13:38:37.764Z,92.20
2022-10-01T13:41:23.935Z,92.30
2022-10-01T13:44:14.989Z,92.40
2022-10-01T13:46:59.153Z,92.40
2022-10-01T13:49:30.780Z,92.50
2022-10-01T13:51:58.303Z,92.10
2022-10-01T13:54:39.878Z,90.00
2022-10-01T13:57:11.536Z,90.90
2022-10-01T13:59:38.804Z,91.30
2022-10-01T14:03:00.401Z,90.70
2022-10-01T14:05:36.599Z,86.00
2022-10-01T14:08:26.053Z,66.60
2022-10-01T14:11:34.292Z,69.20
2022-10-01T14:14:30.611Z,66.60
2022-10-01T14:16:58.855Z,58.00
2022-10-01T14:19:27.664Z,64.60
2022-10-01T14:22:03.636Z,53.30
2022-10-01T14:24:57.537Z,50.00
2022-10-01T14:27:29.996Z,51.40
2022-10-01T14:30:13.532Z,48.80
2022-10-01T14:32:51.000Z,66.90
2022-10-01T14:35:39.129Z,65.70
2022-10-01T14:38:13.866Z,61.40
2022-10-01T14:40:43.444Z,59.90
2022-10-01T14:43:25.403Z,58.60
2022-10-01T14:45:56.802Z,61.90
2022-10-01T14:48:25.643Z,48.70
2022-10-01T14:50:57.835Z,65.80
2022-10-01T14:53:27.921Z,65.50
2022-10-01T14:55:58.041Z,64.90
2022-10-01T14:58:31.879Z,61.30
2022-10-01T15:01:00.336Z,61.30
2022-10-01T15:03:35.445Z,66.00
2022-10-01T15:06:05.340Z,41.20
2022-10-01T15:08:47.728Z,62.50
2022-10-01T15:11:19.793Z,38.20
2022-10-01T15:13:49.457Z,33.70
2022-10-01T15:16:19.219Z,44.60
2022-10-01T15:18:50.172Z,37.50
2022-10-01T15:21:22.930Z,43.90
2022-10-01T15:23:50.385Z,22.00
2022-10-01T15:26:23.076Z,19.80
2022-10-01T15:28:49.901Z,17.40
2022-10-01T15:31:17.265Z,29.80
2022-10-01T15:33:44.526Z,37.60
2022-10-01T15:36:18.191Z,22.10
2022-10-01T15:38:48.958Z,20.20
2022-10-01T15:41:33.144Z,14.40
2022-10-01T15:44:05.355Z,12.70
2022-10-01T15:46:35.120Z,19.30
2022-10-01T15:49:20.735Z,36.90
2022-10-01T15:52:12.295Z,38.20
2022-10-01T15:54:42.329Z,34.30
2022-10-01T15:57:15.609Z,31.30
2022-10-01T15:59:42.385Z,46.00
2022-10-01T16:02:16.227Z,64.80
2022-10-01T16:04:42.985Z,65.30
2022-10-01T16:07:22.615Z,35.10
2022-10-01T16:09:56.058Z,20.20
2022-10-01T16:12:23.324Z,16.00
2022-10-01T16:15:01.878Z,20.00
2022-10-01T16:17:38.014Z,23.50
2022-10-01T16:20:45.588Z,31.30
2022-10-01T16:23:39.815Z,28.80
2022-10-01T16:26:28.429Z,18.60
2022-10-01T16:29:04.503Z,22.20
2022-10-01T16:31:31.948Z,41.70
2022-10-01T16:33:58.824Z,33.80
2022-10-01T16:36:26.372Z,23.90
2022-10-01T16:38:53.589Z,25.10
2022-10-01T16:41:23.112Z,38.70
2022-10-01T16:43:51.397Z,50.50
2022-10-01T16:46:18.173Z,49.80
2022-10-01T16:48:48.004Z,48.70
2022-10-01T16:51:14.807Z,58.70
2022-10-01T16:53:42.902Z,46.50
2022-10-01T16:56:10.838Z,45.30
2022-10-01T16:58:41.730Z,34.90
2022-10-01T17:01:10.095Z,30.90
2022-10-01T17:03:36.857Z,35.30
2022-10-01T17:06:03.718Z,43.30
2022-10-01T17:08:30.518Z,31.90
2022-10-01T17:11:00.240Z,38.40
2022-10-01T17:13:34.995Z,59.20
2022-10-01T17:16:02.273Z,66.50
2022-10-01T17:18:29.109Z,65.40
2022-10-01T17:20:56.269Z,67.30
2022-10-01T17:23:23.664Z,78.00
2022-10-01T17:25:50.847Z,70.20
2022-10-01T17:28:20.203Z,66.70
2022-10-01T17:30:48.465Z,61.70
2022-10-01T17:33:19.137Z,50.80
2022-10-01T17:35:51.653Z,39.90
2022-10-01T17:38:19.454Z,64.10
2022-10-01T17:40:46.658Z,70.20
2022-10-01T17:43:15.260Z,62.90
2022-10-01T17:45:43.013Z,59.30
2022-10-01T17:48:12.357Z,60.10
2022-10-01T17:50:43.540Z,49.70
2022-10-01T17:53:11.399Z,50.30
2022-10-01T17:55:42.500Z,64.60
2022-10-01T17:58:09.958Z,63.70
2022-10-01T18:00:37.238Z,71.70
2022-10-01T18:03:04.454Z,70.60
2022-10-01T18:05:31.433Z,70.00
2022-10-01T18:07:58.135Z,78.80
2022-10-01T18:10:24.988Z,82.90
2022-10-01T18:12:51.719Z,82.20
2022-10-01T18:15:20.730Z,82.00
2022-10-01T18:17:52.003Z,85.20
2022-10-01T18:20:20.628Z,85.30
2022-10-01T18:22:47.552Z,84.90
2022-10-01T18:25:16.052Z,90.00
2022-10-01T18:27:43.555Z,86.40
2022-10-01T18:30:10.833Z,84.50
2022-10-01T18:32:44.751Z,84.50
2022-10-01T18:35:26.976Z,87.20
2022-10-01T18:37:57.878Z,86.40
2022-10-01T18:40:34.633Z,88.50
2022-10-01T18:43:15.987Z,87.20
2022-10-01T18:45:45.594Z,90.00
2022-10-01T18:48:38.615Z,90.60
2022-10-01T18:51:17.405Z,90.90
2022-10-01T18:54:08.832Z,91.50
2022-10-01T18:56:37.421Z,91.60
2022-10-01T18:59:22.178Z,91.70
2022-10-01T19:02:20.979Z,91.80
2022-10-01T19:05:07.687Z,91.90
2022-10-01T19:07:46.546Z,91.90
2022-10-01T19:10:22.888Z,91.90
2022-10-01T19:13:03.152Z,92.00
2022-10-01T19:16:02.181Z,92.00
2022-10-01T19:18:37.884Z,92.00
2022-10-01T19:21:13.761Z,92.00
2022-10-01T19:24:01.742Z,92.00
2022-10-01T19:26:31.110Z,92.00
2022-10-01T19:29:19.655Z,92.00
2022-10-01T19:31:56.235Z,92.00
2022-10-01T19:34:48.295Z,92.10
2022-10-01T19:37:33.745Z,92.10
2022-10-01T19:40:14.639Z,92.10
2022-10-01T19:42:47.611Z,92.10
2022-10-01T19:45:25.666Z,92.10
2022-10-01T19:48:07.921Z,92.10
2022-10-01T19:50:39.618Z,92.10
2022-10-01T19:53:21.473Z,92.10
2022-10-01T19:55:51.517Z,92.10
2022-10-01T19:58:20.414Z,92.10
2022-10-01T20:00:52.571Z,92.10
2022-10-01T20:03:39.585Z,92.20
2022-10-01T20:06:37.682Z,92.10
2022-10-01T20:09:34.579Z,92.10
2022-10-01T20:12:16.232Z,92.10
2022-10-01T20:15:10.415Z,92.10
2022-10-01T20:17:47.790Z,92.20
2022-10-01T20:20:50.832Z,92.20
2022-10-01T20:23:45.263Z,92.20
2022-10-01T20:26:21.164Z,92.20
2022-10-01T20:29:18.402Z,92.20
2022-10-01T20:32:10.548Z,92.20
2022-10-01T20:34:42.036Z,92.20
2022-10-01T20:37:22.884Z,92.20
2022-10-01T20:39:59.883Z,92.20
2022-10-01T20:42:35.499Z,92.20
2022-10-01T20:45:04.444Z,92.20
2022-10-01T20:47:40.385Z,92.20
2022-10-01T20:50:19.298Z,92.20
2022-10-01T20:53:03.928Z,92.20
2022-10-01T20:55:45.319Z,92.20
2022-10-01T20:58:19.296Z,92.20
2022-10-01T21:00:47.771Z,92.20
2022-10-01T21:03:32.071Z,92.20
2022-10-01T21:06:04.782Z,92.20
2022-10-01T21:08:47.452Z,92.20
2022-10-01T21:11:19.736Z,92.20
2022-10-01T21:14:00.592Z,92.20
2022-10-01T21:16:56.760Z,92.20
2022-10-01T21:19:29.240Z,92.20
2022-10-01T21:22:33.279Z,92.20
2022-10-01T21:25:26.890Z,92.20
2022-10-01T21:28:31.427Z,92.20
2022-10-01T21:31:34.461Z,92.20
2022-10-01T21:34:26.284Z,92.20
2022-10-01T21:37:03.844Z,92.20
2022-10-01T21:39:38.155Z,92.20
2022-10-01T21:42:13.905Z,92.20
2022-10-01T21:45:07.680Z,92.20
2022-10-01T21:48:01.550Z,92.20
2022-10-01T21:50:44.465Z,92.20
2022-10-01T21:53:29.068Z,92.20
2022-10-01T21:56:26.485Z,92.20
2022-10-01T21:58:53.147Z,92.20
2022-10-01T22:01:41.188Z,92.20
2022-10-01T22:04:16.581Z,92.30
2022-10-01T22:06:53.176Z,92.20
2022-10-01T22:09:43.201Z,92.20
2022-10-01T22:12:11.738Z,92.20
2022-10-01T22:14:40.405Z,92.20
2022-10-01T22:17:17.605Z,92.20
2022-10-01T22:19:51.110Z,92.20
2022-10-01T22:22:25.718Z,92.30
2022-10-01T22:24:53.587Z,92.30
2022-10-01T22:27:44.190Z,92.30
2022-10-01T22:30:17.677Z,92.30
2022-10-01T22:32:51.470Z,92.30
2022-10-01T22:35:38.535Z,92.30
2022-10-01T22:38:26.363Z,92.30
2022-10-01T22:41:36.407Z,92.20
2022-10-01T22:44:15.372Z,92.30
2022-10-01T22:46:51.346Z,92.30
2022-10-01T22:49:33.958Z,92.30
2022-10-01T22:52:01.701Z,92.30
2022-10-01T22:54:59.365Z,92.30
2022-10-01T22:57:28.923Z,92.30
2022-10-01T23:00:10.921Z,92.30
2022-10-01T23:02:48.193Z,92.30
2022-10-01T23:05:33.689Z,92.30
2022-10-01T23:08:06.115Z,92.30
2022-10-01T23:10:41.780Z,92.30
2022-10-01T23:13:33.875Z,92.30
2022-10-01T23:16:00.719Z,92.30
2022-10-01T23:18:57.455Z,92.30
2022-10-01T23:21:45.292Z,92.30
2022-10-01T23:24:29.688Z,92.40
2022-10-01T23:27:23.302Z,92.30
2022-10-01T23:30:11.586Z,92.30
2022-10-01T23:33:16.463Z,92.30
2022-10-01T23:35:51.897Z,92.30
2022-10-01T23:38:39.748Z,92.40
2022-10-01T23:41:18.985Z,92.30
2022-10-01T23:43:48.438Z,92.30
2022-10-01T23:46:17.599Z,92.30
2022-10-01T23:48:53.109Z,92.40
2022-10-01T23:51:27.488Z,92.40
2022-10-01T23:53:57.000Z,92.40
2022-10-01T23:56:49.189Z,92.40
2022-10-01T23:59:19.241Z,92.30
